Accueil
METAR-TAF:

METAR-TAF

Aéroports :

Umiujaq, Québec, Canada

latitude: 56-32N, longitude: 076-31W, altitude: 71 m

Observation

Le bulletin a été fait il y a 29 minutes, à 21:00 UTC
Vent 12 kt de est/nord-est
Température 3°C
Humidité 75%
Pression 1004 hPa
Visibilité: 24.1 km
Nuages fragmentés à une hauteur de 4200 ft
Nuages fragmentés à une hauteur de 7000 ft

METAR: CYMU 242100Z 07012KT 15SM BKN042 BKN070 03/M01 A2966 RMK SC6AC1 LAST STFD OBS/NEXT 25 1200Z SLP050

Heure: 17:29 (21:29 UTC)


TAF: absent

Observations et prévisions météorologiques de plus de 4000 aéroports (messages METAR et TAF).

Les stations disponibles sont représentées par des disques jaunes et rouges sur la carte.

Passer la souris dessus pour voir le nom de la station.

Cliquer dessus pour voir les observations et prévisions météorologiques.

Pour changer de carte: cliquez sur les boutons verts avec une croix noire pour zoomer, sur le bouton vert avec un tiret pour effectuer un zoom arrière, ou sur les flèches vertes pour les cartes adjacentes.


METAR-TAF: